New Yoshino — JG5527 — position and weather

sailwx.info

Track history (hours):
 
Tides and Currents Weather Stations Pressure Air Temp Water Temp Dewpoint Dewpoint Depression Visibility Wind Speed Wind Dir Waves Ship Positions

New Yoshino

Last reported at 2016-Feb-09 17:33 UTC. Time now 2016-Feb-10 06:43 UTC.
Position N 35°07' E 139°43'.

Length 102 m; draft 6.6 m.

Type: Tanker. MMSI: 431300724.

Date/timePositionNaut miles runAvg speedWind from/ knotsBaromVisibWave heightAir tempDewpointWater temp
2016-Feb-09 17:33N 35°07' E 139°43'1111.5
2016-Feb-09 16:33N 35°19' E 139°44'1111.4
2016-Feb-09 15:33N 35°30' E 139°48'2 2.1
2016-Feb-09 14:33N 35°31' E 139°46'0 0.0
2016-Feb-09 13:33N 35°31' E 139°46'0 0.0
2016-Feb-09 12:30N 35°31' E 139°46'0 0.0
2016-Feb-09 11:33N 35°31' E 139°46'0 0.0
2016-Feb-09 10:30N 35°31' E 139°46'0 0.0
2016-Feb-09 09:30N 35°31' E 139°46'0 0.0
2016-Feb-09 08:27N 35°31' E 139°46'0 0.0
2016-Feb-09 07:33N 35°31' E 139°46'1 1.1
2016-Feb-09 06:34N 35°30' E 139°45'6 6.2
2016-Feb-09 05:33N 35°24' E 139°45'0 0.1
2016-Feb-09 04:33N 35°24' E 139°46'0 0.0
2016-Feb-09 03:32N 35°24' E 139°46'0 0.1
2016-Feb-09 02:32N 35°24' E 139°45'0 0.0
2016-Feb-09 01:32N 35°24' E 139°45'0 0.1
2016-Feb-09 00:32N 35°24' E 139°45'0 0.1
2016-Feb-08 23:32N 35°24' E 139°45'0 0.0
2016-Feb-08 22:32N 35°24' E 139°45'0 0.0
2016-Feb-08 21:32N 35°24' E 139°45'0 0.1
2016-Feb-08 20:32N 35°24' E 139°45'0 0.0
2016-Feb-08 19:32N 35°24' E 139°45'0 0.0
2016-Feb-08 18:32N 35°24' E 139°45'0 0.0
2016-Feb-08 17:32N 35°24' E 139°45'0 0.0
2016-Feb-08 16:32N 35°24' E 139°45'0 0.1
2016-Feb-08 15:32N 35°24' E 139°45'0 0.0
2016-Feb-08 14:32N 35°24' E 139°45'0 0.0
2016-Feb-08 13:32N 35°24' E 139°45'0 0.0
2016-Feb-08 12:32N 35°24' E 139°45'0 0.0
2016-Feb-08 11:32N 35°24' E 139°45'7 6.6
2016-Feb-08 10:33N 35°30' E 139°47'1 0.8
2016-Feb-08 09:21N 35°31' E 139°46'0 0.0
2016-Feb-08 08:33N 35°31' E 139°46'0 0.0
2016-Feb-08 07:33N 35°31' E 139°46'0 0.0
2016-Feb-08 06:33N 35°31' E 139°46'0 0.0
2016-Feb-08 05:33N 35°31' E 139°46'0 0.0
2016-Feb-08 04:30N 35°31' E 139°46'0 0.0
2016-Feb-08 03:33N 35°31' E 139°46'0 0.0
2016-Feb-08 02:33N 35°31' E 139°46'0 0.0
2016-Feb-08 01:18N 35°31' E 139°46'0 0.6
2016-Feb-08 00:33N 35°31' E 139°46'7 7.0
2016-Feb-07 23:33N 35°24' E 139°44'1 1.0
2016-Feb-07 22:33N 35°23' E 139°44'0 0.0
2016-Feb-07 21:30N 35°23' E 139°44'0 0.0
2016-Feb-07 20:33N 35°23' E 139°44'0 0.0
2016-Feb-07 19:33N 35°23' E 139°44'0 0.0
2016-Feb-07 18:33N 35°23' E 139°44'0 0.1
2016-Feb-07 17:33N 35°23' E 139°44'0 0.0
2016-Feb-07 16:33N 35°23' E 139°44'0 0.1
2016-Feb-07 15:33N 35°23' E 139°44'0 0.0
2016-Feb-07 14:33N 35°23' E 139°44'0 0.0
2016-Feb-07 13:33N 35°23' E 139°44'4 4.5
2016-Feb-07 12:33N 35°19' E 139°44'1212.0
2016-Feb-07 11:33N 35°07' E 139°45'242 8.3
2016-Feb-06 06:33N 34°01' E 135°02'5 0.3
2016-Feb-05 13:33N 34°06' E 135°02'  
2016-Jan-30 19:09N 36°12' E 141°05'1112.0
2016-Jan-30 18:14N 36°01' E 141°02'  
Track history (hours):
 
Tides and Currents Weather Stations Pressure Air Temp Water Temp Dewpoint Dewpoint Depression Visibility Wind Speed Wind Dir Waves Ship Positions

New Yoshino

Last reported at 2016-Feb-09 17:33 UTC. Time now 2016-Feb-10 06:43 UTC.
Position N 35°07' E 139°43'.

Length 102 m; draft 6.6 m.

Type: Tanker. MMSI: 431300724.

Date/timePositionNaut miles runAvg speedWind from/ knotsBaromVisibWave heightAir tempDewpointWater temp
2016-Feb-09 17:33N 35°07' E 139°43'1111.5
2016-Feb-09 16:33N 35°19' E 139°44'1111.4
2016-Feb-09 15:33N 35°30' E 139°48'2 2.1
2016-Feb-09 14:33N 35°31' E 139°46'0 0.0
2016-Feb-09 13:33N 35°31' E 139°46'0 0.0
2016-Feb-09 12:30N 35°31' E 139°46'0 0.0
2016-Feb-09 11:33N 35°31' E 139°46'0 0.0
2016-Feb-09 10:30N 35°31' E 139°46'0 0.0
2016-Feb-09 09:30N 35°31' E 139°46'0 0.0
2016-Feb-09 08:27N 35°31' E 139°46'0 0.0
2016-Feb-09 07:33N 35°31' E 139°46'1 1.1
2016-Feb-09 06:34N 35°30' E 139°45'6 6.2
2016-Feb-09 05:33N 35°24' E 139°45'0 0.1
2016-Feb-09 04:33N 35°24' E 139°46'0 0.0
2016-Feb-09 03:32N 35°24' E 139°46'0 0.1
2016-Feb-09 02:32N 35°24' E 139°45'0 0.0
2016-Feb-09 01:32N 35°24' E 139°45'0 0.1
2016-Feb-09 00:32N 35°24' E 139°45'0 0.1
2016-Feb-08 23:32N 35°24' E 139°45'0 0.0
2016-Feb-08 22:32N 35°24' E 139°45'0 0.0
2016-Feb-08 21:32N 35°24' E 139°45'0 0.1
2016-Feb-08 20:32N 35°24' E 139°45'0 0.0
2016-Feb-08 19:32N 35°24' E 139°45'0 0.0
2016-Feb-08 18:32N 35°24' E 139°45'0 0.0
2016-Feb-08 17:32N 35°24' E 139°45'0 0.0
2016-Feb-08 16:32N 35°24' E 139°45'0 0.1
2016-Feb-08 15:32N 35°24' E 139°45'0 0.0
2016-Feb-08 14:32N 35°24' E 139°45'0 0.0
2016-Feb-08 13:32N 35°24' E 139°45'0 0.0
2016-Feb-08 12:32N 35°24' E 139°45'0 0.0
2016-Feb-08 11:32N 35°24' E 139°45'7 6.6
2016-Feb-08 10:33N 35°30' E 139°47'1 0.8
2016-Feb-08 09:21N 35°31' E 139°46'0 0.0
2016-Feb-08 08:33N 35°31' E 139°46'0 0.0
2016-Feb-08 07:33N 35°31' E 139°46'0 0.0
2016-Feb-08 06:33N 35°31' E 139°46'0 0.0
2016-Feb-08 05:33N 35°31' E 139°46'0 0.0
2016-Feb-08 04:30N 35°31' E 139°46'0 0.0
2016-Feb-08 03:33N 35°31' E 139°46'0 0.0
2016-Feb-08 02:33N 35°31' E 139°46'0 0.0
2016-Feb-08 01:18N 35°31' E 139°46'0 0.6
2016-Feb-08 00:33N 35°31' E 139°46'7 7.0
2016-Feb-07 23:33N 35°24' E 139°44'1 1.0
2016-Feb-07 22:33N 35°23' E 139°44'0 0.0
2016-Feb-07 21:30N 35°23' E 139°44'0 0.0
2016-Feb-07 20:33N 35°23' E 139°44'0 0.0
2016-Feb-07 19:33N 35°23' E 139°44'0 0.0
2016-Feb-07 18:33N 35°23' E 139°44'0 0.1
2016-Feb-07 17:33N 35°23' E 139°44'0 0.0
2016-Feb-07 16:33N 35°23' E 139°44'0 0.1
2016-Feb-07 15:33N 35°23' E 139°44'0 0.0
2016-Feb-07 14:33N 35°23' E 139°44'0 0.0
2016-Feb-07 13:33N 35°23' E 139°44'4 4.5
2016-Feb-07 12:33N 35°19' E 139°44'1212.0
2016-Feb-07 11:33N 35°07' E 139°45'242 8.3
2016-Feb-06 06:33N 34°01' E 135°02'5 0.3
2016-Feb-05 13:33N 34°06' E 135°02'  
2016-Jan-30 19:09N 36°12' E 141°05'1112.0
2016-Jan-30 18:14N 36°01' E 141°02'  

Dump ship's entire track history